Time;durP1;ratioP1;P1;durP2;ratioP2;P2;SDS_P1;SDS_P2;PMS_P1;PMS_P2;Temp;Humidity;BMP_temperature;BMP_pressure;BME280_temperature;BME280_humidity;BME280_pressure;Samples;Min_cycle;Max_cycle;Signal;HPM_P1;HPM_P2
2021/07/09 00:01:22;;;;;;;8.32;5.65;;;;;;;14.90;100.00;96397.75;5003780;28;20507;-78
2021/07/09 00:03:48;;;;;;;7.50;5.50;;;;;;;14.90;100.00;96411.00;5001488;28;20061;-79
2021/07/09 00:06:14;;;;;;;6.85;5.30;;;;;;;14.89;100.00;96404.03;5004166;28;20061;-78
2021/07/09 00:08:40;;;;;;;8.55;6.03;;;;;;;14.87;100.00;96398.13;5006831;28;20030;-78
2021/07/09 00:11:06;;;;;;;7.43;5.63;;;;;;;14.91;100.00;96396.75;5010786;28;20040;-78
2021/07/09 00:13:31;;;;;;;7.85;5.28;;;;;;;14.88;100.00;96407.72;5010624;28;20030;-79
2021/07/09 00:15:57;;;;;;;6.95;4.43;;;;;;;14.91;100.00;96396.75;5005862;28;20030;-79
2021/07/09 00:18:23;;;;;;;7.10;4.45;;;;;;;14.90;100.00;96395.94;4997050;28;20393;-79
2021/07/09 00:20:49;;;;;;;6.05;3.55;;;;;;;14.84;100.00;96392.19;5006323;28;20481;-80
2021/07/09 00:23:15;;;;;;;5.43;3.40;;;;;;;14.79;100.00;96389.28;5023016;28;20033;-78
2021/07/09 00:25:41;;;;;;;5.78;3.97;;;;;;;14.87;100.00;96384.88;5008970;28;20034;-78
2021/07/09 00:28:06;;;;;;;12.05;4.82;;;;;;;14.98;100.00;96395.84;5008050;28;20039;-78
2021/07/09 00:30:32;;;;;;;6.55;3.35;;;;;;;14.87;100.00;96400.78;5009336;28;20037;-79
2021/07/09 00:32:58;;;;;;;5.57;3.40;;;;;;;14.85;100.00;96395.66;5026200;28;20648;-78
2021/07/09 00:35:24;;;;;;;6.97;4.20;;;;;;;14.80;100.00;96398.84;5009004;28;20036;-79
2021/07/09 00:37:49;;;;;;;5.80;4.13;;;;;;;14.85;100.00;96400.94;5010424;28;20029;-78
2021/07/09 00:40:16;;;;;;;6.47;4.65;;;;;;;14.84;100.00;96400.13;4984238;28;20440;-79
2021/07/09 00:42:43;;;;;;;5.07;3.85;;;;;;;14.87;100.00;96401.59;5002137;28;20137;-79
2021/07/09 00:45:11;;;;;;;8.43;4.90;;;;;;;14.79;100.00;96409.63;5008217;28;20401;-78
2021/07/09 00:47:37;;;;;;;5.13;4.05;;;;;;;14.86;100.00;96410.53;4992219;28;20661;-78
2021/07/09 00:50:05;;;;;;;6.38;4.13;;;;;;;14.83;100.00;96401.13;5008850;28;20160;-78
2021/07/09 00:52:31;;;;;;;5.82;4.03;;;;;;;14.78;100.00;96402.69;5006810;28;20037;-79
2021/07/09 00:54:57;;;;;;;6.60;4.47;;;;;;;14.79;100.00;96399.84;5011285;28;20049;-78
2021/07/09 00:57:23;;;;;;;5.75;4.07;;;;;;;14.71;100.00;96397.28;5009675;28;20025;-78
2021/07/09 00:59:49;;;;;;;6.22;4.00;;;;;;;14.73;100.00;96397.13;5006786;28;20152;-79
2021/07/09 01:02:15;;;;;;;8.65;4.75;;;;;;;14.67;100.00;96395.19;5021747;28;20033;-81
2021/07/09 01:04:41;;;;;;;5.72;4.53;;;;;;;14.62;100.00;96382.50;5015532;28;20033;-79
2021/07/09 01:07:07;;;;;;;7.75;5.05;;;;;;;14.65;100.00;96384.75;5008558;28;20036;-78
2021/07/09 01:09:32;;;;;;;6.97;4.63;;;;;;;14.64;100.00;96380.47;5009729;28;20116;-78
2021/07/09 01:12:02;;;;;;;6.10;4.90;;;;;;;14.64;100.00;96380.47;4990827;28;20068;-79
2021/07/09 01:14:27;;;;;;;7.85;4.68;;;;;;;14.58;100.00;96378.56;4986179;28;20076;-79
2021/07/09 01:16:53;;;;;;;6.93;4.35;;;;;;;14.64;100.00;96372.53;5005331;28;20116;-78
2021/07/09 01:19:21;;;;;;;7.32;4.45;;;;;;;14.53;100.00;96362.41;5009496;28;20033;-79
2021/07/09 01:21:49;;;;;;;5.30;4.03;;;;;;;14.58;100.00;96355.53;5009193;28;20481;-79
2021/07/09 01:24:16;;;;;;;7.57;4.80;;;;;;;14.54;100.00;96364.84;5008766;28;20030;-79
2021/07/09 01:26:42;;;;;;;9.30;5.60;;;;;;;14.50;100.00;96371.53;5008908;28;20040;-79
2021/07/09 01:29:09;;;;;;;6.57;5.23;;;;;;;14.47;100.00;96361.25;5008539;28;20528;-79
2021/07/09 01:31:35;;;;;;;7.00;5.17;;;;;;;14.39;100.00;96362.16;5008479;28;20022;-79
2021/07/09 01:34:03;;;;;;;7.22;4.70;;;;;;;14.39;100.00;96362.16;5006697;28;20088;-79
2021/07/09 01:36:29;;;;;;;7.47;5.53;;;;;;;14.39;100.00;96359.53;4996235;28;20029;-78
2021/07/09 01:38:55;;;;;;;6.13;4.68;;;;;;;14.38;100.00;96363.19;5012958;28;20037;-79
2021/07/09 01:41:20;;;;;;;5.93;4.03;;;;;;;14.34;100.00;96355.75;5008710;28;20025;-79
2021/07/09 01:43:48;;;;;;;5.20;3.78;;;;;;;14.32;100.00;96355.16;5001107;28;20034;-78
2021/07/09 01:46:14;;;;;;;5.05;3.97;;;;;;;14.49;100.00;96361.09;4992120;28;20022;-79
2021/07/09 01:48:40;;;;;;;6.43;4.05;;;;;;;14.41;100.00;96353.22;5007832;28;20033;-79
2021/07/09 01:51:06;;;;;;;5.78;3.75;;;;;;;14.34;100.00;96359.22;5006396;28;20516;-79
2021/07/09 01:53:32;;;;;;;5.27;3.87;;;;;;;14.24;100.00;96363.94;4991944;28;20072;-79
2021/07/09 01:56:00;;;;;;;7.33;3.87;;;;;;;14.24;100.00;96358.66;4992295;28;20054;-78
2021/07/09 01:58:25;;;;;;;5.53;3.33;;;;;;;14.27;100.00;96355.66;4998817;28;20448;-79
2021/07/09 02:00:51;;;;;;;3.40;2.70;;;;;;;14.17;100.00;96357.75;5006232;28;20025;-79
2021/07/09 02:03:17;;;;;;;4.22;3.17;;;;;;;14.27;100.00;96363.59;5007255;28;20026;-79
2021/07/09 02:05:43;;;;;;;5.05;3.08;;;;;;;14.33;100.00;96349.66;4991454;28;20167;-79
2021/07/09 02:08:09;;;;;;;4.63;3.10;;;;;;;14.34;100.00;96359.22;5008075;28;20053;-79
2021/07/09 02:10:39;;;;;;;4.38;2.90;;;;;;;14.20;100.00;96356.56;5024903;28;20034;-79
2021/07/09 02:13:05;;;;;;;4.28;3.15;;;;;;;14.16;100.00;96353.47;4992881;28;20068;-79
2021/07/09 02:15:37;;;;;;;4.88;2.88;;;;;;;14.18;100.00;96356.72;5000652;28;20026;-78
2021/07/09 02:18:04;;;;;;;8.20;3.05;;;;;;;14.18;100.00;96359.38;4990090;28;20035;-78
2021/07/09 02:20:30;;;;;;;3.67;2.47;;;;;;;14.21;100.00;96358.19;5007468;28;20026;-80
2021/07/09 02:22:57;;;;;;;4.32;2.08;;;;;;;14.19;100.00;96362.88;4993509;28;20621;-79
2021/07/09 02:25:24;;;;;;;3.22;1.55;;;;;;;14.11;100.00;96359.25;5009929;28;20029;-78
2021/07/09 02:27:52;;;;;;;2.37;1.57;;;;;;;14.13;100.00;96359.09;5011388;28;20038;-80
2021/07/09 02:30:19;;;;;;;2.05;1.40;;;;;;;14.16;100.00;96361.38;4995018;28;20036;-78
2021/07/09 02:32:47;;;;;;;2.53;1.50;;;;;;;14.21;100.00;96363.50;5011575;28;20030;-79
2021/07/09 02:35:19;;;;;;;4.72;1.88;;;;;;;14.20;100.00;96359.22;5010760;28;20117;-78
2021/07/09 02:37:46;;;;;;;1.65;1.40;;;;;;;14.18;100.00;96366.47;5011053;28;20037;-77
2021/07/09 02:40:14;;;;;;;5.20;1.50;;;;;;;14.21;100.00;96364.31;5007667;28;20034;-79
2021/07/09 02:42:41;;;;;;;5.15;2.70;;;;;;;14.12;100.00;96360.94;5006512;28;20038;-78
2021/07/09 02:45:10;;;;;;;3.47;2.50;;;;;;;14.14;100.00;96363.38;5004902;28;20018;-80
2021/07/09 02:47:37;;;;;;;2.67;1.40;;;;;;;14.09;100.00;96363.94;4997208;28;20039;-78
2021/07/09 02:50:08;;;;;;;1.67;1.30;;;;;;;14.14;100.00;96374.78;5016523;28;20026;-78
2021/07/09 02:52:34;;;;;;;5.00;1.10;;;;;;;14.15;100.00;96373.78;5011104;28;20645;-79
2021/07/09 02:55:00;;;;;;;1.60;0.97;;;;;;;13.97;100.00;96372.44;5011042;28;20108;-79
2021/07/09 02:57:25;;;;;;;1.30;0.90;;;;;;;14.08;100.00;96372.00;5009905;28;20533;-77
2021/07/09 02:59:51;;;;;;;4.17;1.20;;;;;;;13.98;100.00;96368.78;5010985;28;20061;-78
2021/07/09 03:02:17;;;;;;;1.52;1.10;;;;;;;13.97;100.00;96370.63;5027814;28;20036;-79
2021/07/09 03:04:42;;;;;;;1.53;1.03;;;;;;;14.00;100.00;96378.19;5011560;28;20022;-79
2021/07/09 03:07:08;;;;;;;1.30;0.90;;;;;;;14.01;100.00;96369.25;4994334;28;20037;-79
2021/07/09 03:09:34;;;;;;;8.27;1.97;;;;;;;14.01;100.00;96377.19;5011043;28;20430;-79
2021/07/09 03:12:01;;;;;;;2.20;1.00;;;;;;;13.99;100.00;96379.22;5014175;28;20034;-79
2021/07/09 03:14:27;;;;;;;2.43;0.90;;;;;;;13.91;100.00;96379.25;4995713;28;20397;-78
2021/07/09 03:16:52;;;;;;;2.57;0.70;;;;;;;13.93;100.00;96381.75;5010933;28;20029;-78
2021/07/09 03:19:19;;;;;;;1.40;0.77;;;;;;;13.89;100.00;96376.81;5017071;28;20041;-79
2021/07/09 03:21:44;;;;;;;1.70;1.10;;;;;;;13.95;100.00;96379.72;5004648;28;20064;-77
2021/07/09 03:24:10;;;;;;;0.67;0.67;;;;;;;13.88;100.00;96374.31;5010305;28;20022;-79
2021/07/09 03:26:36;;;;;;;1.33;0.90;;;;;;;13.85;100.00;96369.41;5010225;28;20034;-78
2021/07/09 03:29:03;;;;;;;4.20;0.90;;;;;;;13.84;100.00;96373.84;5011774;28;20566;-79
2021/07/09 03:31:32;;;;;;;1.70;0.90;;;;;;;13.85;100.00;96370.22;5026348;28;20033;-78
2021/07/09 03:33:59;;;;;;;1.07;0.80;;;;;;;13.79;100.00;96375.41;5002009;28;20022;-79
2021/07/09 03:36:25;;;;;;;2.33;1.10;;;;;;;13.83;100.00;96374.84;4994989;28;20033;-79
2021/07/09 03:38:52;;;;;;;1.57;1.00;;;;;;;13.86;100.00;96382.44;5011429;28;20022;-79
2021/07/09 03:41:18;;;;;;;1.33;0.93;;;;;;;13.84;100.00;96379.13;4994906;28;20091;-79
2021/07/09 03:43:44;;;;;;;5.27;2.93;;;;;;;13.78;100.00;96390.44;5012596;28;20100;-81
2021/07/09 03:46:13;;;;;;;5.30;1.73;;;;;;;13.76;100.00;96387.13;5007504;28;21140;-80
2021/07/09 03:48:39;;;;;;;1.40;0.97;;;;;;;13.73;100.00;96387.47;5010853;28;20030;-79
2021/07/09 03:51:06;;;;;;;1.37;1.00;;;;;;;13.74;100.00;96393.59;5003902;28;20041;-78
2021/07/09 03:53:35;;;;;;;1.60;1.00;;;;;;;13.70;100.00;96392.28;5011152;28;20064;-78
2021/07/09 03:56:02;;;;;;;1.37;1.03;;;;;;;13.67;100.00;96385.53;5025586;28;20413;-78
2021/07/09 03:58:31;;;;;;;1.57;0.80;;;;;;;13.77;100.00;96390.59;4994262;28;20026;-78
2021/07/09 04:00:57;;;;;;;2.77;0.93;;;;;;;13.79;100.00;96394.72;4996830;28;20105;-79
2021/07/09 04:03:24;;;;;;;1.50;0.97;;;;;;;13.75;100.00;96401.34;5010704;28;20018;-79
2021/07/09 04:05:49;;;;;;;2.00;0.80;;;;;;;13.78;100.00;96405.44;5010251;28;20068;-79
2021/07/09 04:08:15;;;;;;;1.00;0.90;;;;;;;13.75;100.00;96406.63;5026050;28;20488;-79
2021/07/09 04:10:41;;;;;;;2.27;0.97;;;;;;;13.80;100.00;96409.56;4994250;28;20489;-79
2021/07/09 04:13:07;;;;;;;3.90;0.73;;;;;;;13.76;100.00;96408.28;5003056;28;20530;-78
2021/07/09 04:15:33;;;;;;;2.33;0.75;;;;;;;13.75;100.00;96414.56;5025891;28;20065;-78
2021/07/09 04:17:58;;;;;;;1.75;0.63;;;;;;;13.75;100.00;96419.00;5009420;28;20018;-79
2021/07/09 04:20:24;;;;;;;0.73;0.60;;;;;;;13.80;100.00;96421.97;4998874;28;20500;-79
2021/07/09 04:22:50;;;;;;;0.97;0.50;;;;;;;13.72;100.00;96419.38;5010708;28;20026;-78
2021/07/09 04:25:16;;;;;;;6.70;1.73;;;;;;;13.66;100.00;96418.25;5026430;28;20056;-79
2021/07/09 04:27:42;;;;;;;0.70;0.50;;;;;;;13.65;100.00;96421.91;5007873;28;20084;-80
2021/07/09 04:30:11;;;;;;;0.40;0.40;;;;;;;13.63;100.00;96418.59;5009682;28;20034;-79
2021/07/09 04:32:36;;;;;;;2.13;0.40;;;;;;;13.65;100.00;96419.25;5009744;28;20508;-79
2021/07/09 04:35:03;;;;;;;1.67;1.03;;;;;;;13.66;100.00;96424.34;5009261;28;20069;-79
2021/07/09 04:37:28;;;;;;;3.33;1.03;;;;;;;13.62;100.00;96427.53;5010207;28;20389;-78
2021/07/09 04:39:54;;;;;;;3.20;0.67;;;;;;;13.60;100.00;96427.69;5009515;28;20029;-80
2021/07/09 04:42:20;;;;;;;0.60;0.50;;;;;;;13.63;100.00;96442.38;5006067;28;20021;-79
2021/07/09 04:44:45;;;;;;;1.15;0.80;;;;;;;13.70;100.00;96431.94;5005322;28;20041;-78
2021/07/09 04:47:12;;;;;;;1.67;0.80;;;;;;;13.64;100.00;96434.25;5001523;28;20065;-78
2021/07/09 04:49:39;;;;;;;1.93;0.90;;;;;;;13.68;100.00;96438.22;5009936;28;20041;-79
2021/07/09 04:52:06;;;;;;;1.40;0.70;;;;;;;13.70;100.00;96435.41;5008312;28;20038;-77
2021/07/09 04:54:32;;;;;;;0.70;0.63;;;;;;;13.67;100.00;96441.84;5013061;28;20041;-79
2021/07/09 04:56:58;;;;;;;1.47;0.80;;;;;;;13.71;100.00;96439.69;5002842;28;20025;-78
2021/07/09 04:59:23;;;;;;;2.37;0.93;;;;;;;13.70;100.00;96437.22;5003962;28;20034;-78
2021/07/09 05:01:49;;;;;;;1.80;0.83;;;;;;;13.69;100.00;96446.97;5010500;28;20030;-78
2021/07/09 05:04:15;;;;;;;2.87;0.83;;;;;;;13.73;100.00;96448.28;5009671;28;20029;-78
2021/07/09 05:06:40;;;;;;;2.53;0.90;;;;;;;13.72;100.00;96448.47;5008418;28;20026;-79
2021/07/09 05:09:07;;;;;;;1.23;0.83;;;;;;;13.80;100.00;96448.41;5012072;28;20048;-78
2021/07/09 05:11:34;;;;;;;3.67;1.97;;;;;;;13.83;100.00;96461.28;5008442;28;20052;-78
2021/07/09 05:14:00;;;;;;;3.20;0.93;;;;;;;13.91;100.00;96458.56;4990257;28;20029;-78
2021/07/09 05:16:26;;;;;;;5.47;3.57;;;;;;;13.82;100.00;96464.91;5008218;28;20053;-77
2021/07/09 05:18:53;;;;;;;8.23;5.65;;;;;;;13.85;100.00;96460.09;5008615;28;20570;-78
2021/07/09 05:21:19;;;;;;;15.70;13.40;;;;;;;13.80;100.00;96467.72;5023747;28;20079;-78
2021/07/09 05:23:45;;;;;;;4.15;0.90;;;;;;;13.85;100.00;96462.75;4991122;28;20121;-77
2021/07/09 05:26:11;;;;;;;1.50;1.00;;;;;;;13.85;100.00;96465.41;5006165;28;20816;-77
2021/07/09 05:28:36;;;;;;;3.97;0.87;;;;;;;13.94;100.00;96467.97;5007879;28;20444;-77
2021/07/09 05:31:02;;;;;;;1.17;0.98;;;;;;;14.02;100.00;96460.84;5005283;28;20028;-78
2021/07/09 05:33:29;;;;;;;2.00;0.65;;;;;;;13.99;100.00;96466.47;5005409;28;20034;-78
2021/07/09 05:35:54;;;;;;;2.10;0.90;;;;;;;14.02;100.00;96465.31;5023696;28;20136;-78
2021/07/09 05:38:20;;;;;;;1.13;0.90;;;;;;;14.05;100.00;96470.22;5008054;28;20117;-78
2021/07/09 05:40:46;;;;;;;1.83;1.00;;;;;;;13.96;100.00;96471.28;5013723;28;20062;-79
2021/07/09 05:43:12;;;;;;;1.02;0.70;;;;;;;13.96;100.00;96476.56;5000054;28;20022;-79
2021/07/09 05:45:37;;;;;;;1.90;1.15;;;;;;;13.97;100.00;96476.38;5003539;28;20096;-80
2021/07/09 05:48:03;;;;;;;1.30;0.85;;;;;;;14.08;100.00;96478.66;5007922;28;20042;-79
2021/07/09 05:50:29;;;;;;;1.27;0.93;;;;;;;14.03;100.00;96480.16;5008684;28;20109;-80
2021/07/09 05:52:55;;;;;;;2.92;0.93;;;;;;;14.03;100.00;96482.81;5007786;28;20497;-78
2021/07/09 05:55:22;;;;;;;2.35;1.00;;;;;;;14.14;100.00;96482.38;5026308;28;20455;-78
2021/07/09 05:57:47;;;;;;;1.37;0.90;;;;;;;14.07;100.00;96478.81;5024503;28;20038;-78
2021/07/09 06:00:14;;;;;;;1.90;1.20;;;;;;;14.11;100.00;96480.91;5011802;28;20105;-78
2021/07/09 06:02:40;;;;;;;4.03;1.17;;;;;;;14.12;100.00;96479.94;5012412;28;20030;-78
2021/07/09 06:05:08;;;;;;;2.53;1.50;;;;;;;14.14;100.00;96487.69;5013148;28;20056;-78
2021/07/09 06:07:34;;;;;;;1.90;1.20;;;;;;;14.21;100.00;96485.97;5012306;28;20141;-79
2021/07/09 06:10:00;;;;;;;2.08;1.35;;;;;;;14.11;100.00;96490.66;5012061;28;20496;-79
2021/07/09 06:12:26;;;;;;;2.28;1.30;;;;;;;14.16;100.00;96493.63;4995662;28;20034;-80
2021/07/09 06:14:53;;;;;;;2.10;1.07;;;;;;;14.14;100.00;96499.06;5013391;28;20112;-78
2021/07/09 06:17:19;;;;;;;6.85;1.45;;;;;;;14.18;100.00;96498.72;5010372;28;20026;-79
2021/07/09 06:19:45;;;;;;;1.30;1.00;;;;;;;14.06;100.00;96503.63;5011968;28;20026;-78
2021/07/09 06:22:11;;;;;;;2.22;1.30;;;;;;;14.06;100.00;96508.91;5027625;28;20125;-78
2021/07/09 06:24:37;;;;;;;3.00;1.30;;;;;;;14.14;100.00;96504.38;5008904;28;20477;-79
2021/07/09 06:27:03;;;;;;;2.15;1.40;;;;;;;14.22;100.00;96510.59;5011055;28;20040;-79
2021/07/09 06:29:29;;;;;;;2.40;1.10;;;;;;;14.07;100.00;96518.47;5012175;28;20033;-79
2021/07/09 06:31:54;;;;;;;1.60;1.20;;;;;;;14.10;100.00;96518.13;5010650;28;20060;-78
2021/07/09 06:34:20;;;;;;;2.78;1.17;;;;;;;14.09;100.00;96521.78;5012158;28;20596;-79
2021/07/09 06:36:46;;;;;;;2.10;1.33;;;;;;;14.11;100.00;96525.88;5009791;28;20049;-79
2021/07/09 06:39:13;;;;;;;2.20;1.30;;;;;;;14.17;100.00;96524.38;5007621;28;20029;-80
2021/07/09 06:41:39;;;;;;;1.30;1.02;;;;;;;14.29;100.00;96528.28;5014310;28;20037;-79
2021/07/09 06:44:05;;;;;;;1.77;1.20;;;;;;;14.24;100.00;96530.59;5014178;28;20022;-80
2021/07/09 06:46:31;;;;;;;3.10;1.13;;;;;;;14.34;100.00;96536.47;5012795;28;20128;-79
2021/07/09 06:48:56;;;;;;;2.72;1.25;;;;;;;14.41;100.00;96533.97;5004076;28;20148;-79
2021/07/09 06:51:22;;;;;;;1.65;1.20;;;;;;;14.36;100.00;96537.16;4996304;28;20528;-79
2021/07/09 06:53:48;;;;;;;3.17;1.45;;;;;;;14.34;100.00;96538.31;5012675;28;20481;-79
2021/07/09 06:56:14;;;;;;;1.75;1.40;;;;;;;14.45;100.00;96545.00;5010282;28;20034;-78
2021/07/09 06:58:41;;;;;;;1.40;1.10;;;;;;;14.36;100.00;96539.78;5011932;28;20096;-78
2021/07/09 07:01:08;;;;;;;3.30;1.40;;;;;;;14.43;100.00;96552.31;5012629;28;20128;-79
2021/07/09 07:03:34;;;;;;;2.73;1.60;;;;;;;14.47;100.00;96548.31;5012606;28;20081;-79
2021/07/09 07:06:00;;;;;;;3.10;1.63;;;;;;;14.52;100.00;96552.13;5007414;28;20038;-79
2021/07/09 07:08:26;;;;;;;1.40;1.00;;;;;;;14.50;100.00;96543.53;4995600;28;20057;-79
2021/07/09 07:10:55;;;;;;;3.58;1.30;;;;;;;14.51;100.00;96550.47;5011884;28;20524;-80
2021/07/09 07:13:23;;;;;;;2.20;1.38;;;;;;;14.64;100.00;96549.88;5012308;28;20500;-79
2021/07/09 07:15:50;;;;;;;1.52;1.10;;;;;;;14.53;100.00;96550.31;5010969;28;20030;-78
2021/07/09 07:18:16;;;;;;;2.10;1.30;;;;;;;14.66;100.00;96547.06;5011537;28;20481;-79
2021/07/09 07:20:44;;;;;;;1.45;1.10;;;;;;;14.54;100.00;96544.00;5027439;28;20048;-79
2021/07/09 07:23:13;;;;;;;2.60;1.10;;;;;;;14.57;100.00;96555.06;5011554;28;20030;-79
2021/07/09 07:25:39;;;;;;;2.58;1.85;;;;;;;14.45;100.00;96555.59;5010832;28;20033;-79
2021/07/09 07:28:06;;;;;;;6.03;2.47;;;;;;;14.44;100.00;96556.59;5009219;28;20046;-79
2021/07/09 07:30:32;;;;;;;1.95;1.20;;;;;;;14.50;100.00;96561.22;5023543;28;20042;-79
2021/07/09 07:32:58;;;;;;;4.00;1.73;;;;;;;14.51;100.00;96563.69;5010365;28;20025;-79
2021/07/09 07:35:24;;;;;;;5.60;2.28;;;;;;;14.52;100.00;96561.88;5008266;28;20037;-79
2021/07/09 07:37:50;;;;;;;3.05;2.03;;;;;;;14.38;100.00;96571.34;5026740;28;20049;-79
2021/07/09 07:40:16;;;;;;;3.85;2.30;;;;;;;14.51;100.00;96571.63;5009380;28;20104;-78
2021/07/09 07:42:42;;;;;;;3.88;2.58;;;;;;;14.49;100.00;96567.50;5010081;28;20648;-79
2021/07/09 07:45:08;;;;;;;4.15;2.53;;;;;;;14.55;100.00;96572.09;4998986;28;20116;-79
2021/07/09 07:47:34;;;;;;;3.95;2.50;;;;;;;14.49;100.00;96576.25;5006851;28;20393;-77
2021/07/09 07:50:00;;;;;;;4.93;2.88;;;;;;;14.62;100.00;96573.06;5022366;28;20038;-80
2021/07/09 07:52:25;;;;;;;4.45;2.97;;;;;;;14.80;100.00;96586.00;5007168;28;20041;-79
2021/07/09 07:54:52;;;;;;;3.90;3.00;;;;;;;14.58;100.00;96574.41;5025415;28;20791;-79
2021/07/09 07:57:19;;;;;;;8.73;5.88;;;;;;;14.57;100.00;96583.34;4995301;28;20041;-78
2021/07/09 07:59:45;;;;;;;5.28;4.03;;;;;;;14.61;100.00;96582.81;5004836;28;20042;-78
2021/07/09 08:02:11;;;;;;;5.63;4.25;;;;;;;14.58;100.00;96585.00;5027753;28;20362;-79
2021/07/09 08:04:37;;;;;;;6.38;3.58;;;;;;;14.50;100.00;96585.03;5012408;28;20037;-79
2021/07/09 08:07:03;;;;;;;11.48;4.18;;;;;;;14.53;100.00;96582.06;5025058;28;20057;-77
2021/07/09 08:09:29;;;;;;;5.90;4.15;;;;;;;14.34;100.00;96586.75;5027097;28;20030;-80
2021/07/09 08:11:56;;;;;;;4.53;3.15;;;;;;;14.28;100.00;96589.28;5002762;28;20033;-79
2021/07/09 08:14:22;;;;;;;5.78;2.97;;;;;;;14.15;100.00;96584.53;5006251;28;20025;-79
2021/07/09 08:16:51;;;;;;;4.57;3.00;;;;;;;14.15;100.00;96593.31;5006839;28;20052;-78
2021/07/09 08:19:21;;;;;;;5.28;3.70;;;;;;;14.03;100.00;96592.03;5010086;28;20045;-79
2021/07/09 08:21:47;;;;;;;4.85;3.30;;;;;;;13.98;100.00;96582.97;5010626;28;20061;-79
2021/07/09 08:24:14;;;;;;;5.68;3.90;;;;;;;13.97;100.00;96591.91;5010330;28;20040;-78
2021/07/09 08:26:40;;;;;;;4.45;3.22;;;;;;;13.95;100.00;96589.44;5010701;28;20028;-78
2021/07/09 08:29:06;;;;;;;4.20;3.05;;;;;;;13.95;100.00;96594.72;5016819;28;20420;-79
2021/07/09 08:31:31;;;;;;;13.23;11.00;;;;;;;14.06;100.00;96607.56;5009357;28;20049;-78
2021/07/09 08:33:57;;;;;;;7.25;5.30;;;;;;;14.03;100.00;96609.72;5001304;28;20447;-78
2021/07/09 08:36:25;;;;;;;5.35;3.80;;;;;;;14.02;100.00;96600.97;5024780;28;20956;-78
2021/07/09 08:38:52;;;;;;;4.57;3.28;;;;;;;14.09;100.00;96603.75;5022717;28;20504;-79
2021/07/09 08:41:18;;;;;;;6.00;3.60;;;;;;;14.08;100.00;96610.88;4994140;28;20037;-78
2021/07/09 08:43:44;;;;;;;4.78;3.58;;;;;;;13.98;100.00;96609.41;5026144;28;20080;-79
2021/07/09 08:46:10;;;;;;;5.10;3.70;;;;;;;14.00;100.00;96615.34;5001053;28;21211;-78
2021/07/09 08:48:40;;;;;;;6.43;4.30;;;;;;;13.91;100.00;96617.19;5010645;28;20616;-78
2021/07/09 08:51:06;;;;;;;6.05;4.30;;;;;;;13.99;100.00;96621.66;5008887;28;20037;-78
2021/07/09 08:53:32;;;;;;;7.03;4.95;;;;;;;13.99;100.00;96613.72;5009414;28;20037;-79
2021/07/09 08:55:58;;;;;;;5.72;4.80;;;;;;;14.06;100.00;96626.09;5009770;28;20045;-79
2021/07/09 08:58:25;;;;;;;7.07;5.55;;;;;;;14.11;100.00;96625.56;5015065;28;20116;-78
2021/07/09 09:00:51;;;;;;;7.50;5.97;;;;;;;14.05;100.00;96628.88;4992748;28;20045;-79
2021/07/09 09:03:24;;;;;;;8.18;7.32;;;;;;;14.08;100.00;96629.38;5009528;28;20049;-78
2021/07/09 09:05:50;;;;;;;10.43;9.18;;;;;;;14.03;100.00;96636.19;5011657;28;20081;-80
2021/07/09 09:08:20;;;;;;;10.87;9.77;;;;;;;13.98;100.00;96639.31;5004897;28;20026;-80
2021/07/09 09:10:49;;;;;;;9.63;8.48;;;;;;;14.02;100.00;96639.81;5008610;28;20038;-79
2021/07/09 09:13:17;;;;;;;14.13;8.98;;;;;;;13.96;100.00;96645.78;4994969;28;20022;-80
2021/07/09 09:15:57;;;;;;;11.38;9.88;;;;;;;14.03;100.00;96654.69;5005420;28;20048;-80
2021/07/09 09:18:29;;;;;;;11.35;9.48;;;;;;;14.11;100.00;96655.47;5011483;28;20076;-80
2021/07/09 09:21:02;;;;;;;10.57;9.48;;;;;;;14.21;100.00;96657.91;5010983;28;20119;-78
2021/07/09 09:23:30;;;;;;;11.95;10.57;;;;;;;14.19;100.00;96656.47;5011584;28;20164;-79
2021/07/09 09:25:56;;;;;;;12.00;10.70;;;;;;;14.22;100.00;96656.94;5011070;28;20026;-80
2021/07/09 09:28:22;;;;;;;12.32;9.75;;;;;;;14.21;100.00;96655.25;5010424;28;20532;-80
2021/07/09 09:30:54;;;;;;;11.45;10.32;;;;;;;14.27;100.00;96656.41;5011739;28;20041;-79
2021/07/09 09:33:21;;;;;;;11.77;10.57;;;;;;;14.41;100.00;96666.25;4994918;28;20022;-80
2021/07/09 09:35:56;;;;;;;13.00;11.65;;;;;;;14.47;100.00;96665.56;5007729;28;20026;-79
2021/07/09 09:38:28;;;;;;;12.45;11.15;;;;;;;14.55;100.00;96667.38;5006990;28;20061;-79
2021/07/09 09:40:58;;;;;;;15.02;11.57;;;;;;;14.61;100.00;96671.97;4993385;28;20115;-79
2021/07/09 09:43:26;;;;;;;12.38;11.18;;;;;;;14.76;100.00;96672.91;4994952;28;20030;-80
2021/07/09 09:45:57;;;;;;;14.35;11.38;;;;;;;14.74;100.00;96671.44;5002070;28;20022;-80
2021/07/09 09:48:34;;;;;;;12.38;10.82;;;;;;;14.75;100.00;96668.59;5009194;28;20034;-79
2021/07/09 09:51:00;;;;;;;13.68;12.07;;;;;;;14.94;100.00;96669.16;5005028;28;20389;-80
2021/07/09 09:53:34;;;;;;;12.23;11.05;;;;;;;14.87;100.00;96674.31;4995557;28;20095;-79
2021/07/09 09:56:08;;;;;;;12.88;11.50;;;;;;;14.83;100.00;96671.22;5011747;28;20061;-80
2021/07/09 09:58:34;;;;;;;13.60;11.27;;;;;;;14.93;100.00;96681.56;5009288;28;20022;-80
2021/07/09 10:01:00;;;;;;;12.40;10.75;;;;;;;14.70;100.00;96668.31;5009310;28;20057;-80
2021/07/09 10:03:26;;;;;;;12.68;10.65;;;;;;;14.73;100.00;96680.38;5005885;28;20110;-79
2021/07/09 10:05:52;;;;;;;16.95;15.07;;;;;;;14.74;100.00;96676.72;4991512;28;20079;-80
2021/07/09 10:08:26;;;;;;;13.30;11.90;;;;;;;14.75;100.00;96679.19;5011003;28;20061;-80
2021/07/09 10:10:52;;;;;;;11.25;9.98;;;;;;;14.50;100.00;96672.34;5010925;28;20072;-79
2021/07/09 10:13:21;;;;;;;13.32;11.43;;;;;;;14.54;100.00;96677.16;5006508;28;20105;-80
2021/07/09 10:15:48;;;;;;;12.68;10.77;;;;;;;14.61;100.00;96672.81;5008760;28;20088;-80
2021/07/09 10:18:15;;;;;;;13.20;10.50;;;;;;;14.75;100.00;96673.06;5008747;28;20017;-79
2021/07/09 10:20:44;;;;;;;14.63;11.73;;;;;;;14.87;100.00;96673.50;5002678;28;20040;-78
2021/07/09 10:23:12;;;;;;;12.57;11.15;;;;;;;15.06;100.00;96675.69;5026682;28;20018;-80
2021/07/09 10:25:39;;;;;;;16.17;11.63;;;;;;;15.05;100.00;96669.56;5009754;28;20121;-79
2021/07/09 10:28:11;;;;;;;15.15;11.90;;;;;;;15.27;100.00;96673.22;4993931;28;20108;-80
2021/07/09 10:30:38;;;;;;;17.02;12.10;;;;;;;15.46;100.00;96679.00;5027129;28;20038;-79
2021/07/09 10:33:29;;;;;;;14.45;12.20;;;;;;;15.41;100.00;96681.38;5010572;28;20017;-79
2021/07/09 10:35:56;;;;;;;13.80;12.27;;;;;;;15.46;100.00;96681.66;5008155;28;20044;-80
2021/07/09 10:38:23;;;;;;;15.20;13.07;;;;;;;15.56;100.00;96675.13;5009617;28;20089;-80
2021/07/09 10:40:50;;;;;;;17.00;14.02;;;;;;;15.75;100.00;96684.41;5009048;28;20042;-79
2021/07/09 10:43:16;;;;;;;17.17;14.07;;;;;;;15.78;100.00;96685.88;5018762;28;20053;-79
2021/07/09 10:45:43;;;;;;;16.75;14.48;;;;;;;15.75;100.00;96681.75;5014342;28;20508;-79
2021/07/09 10:48:17;;;;;;;15.70;14.13;;;;;;;15.75;100.00;96676.47;5014016;28;20037;-79
2021/07/09 10:50:53;;;;;;;16.67;14.77;;;;;;;15.74;100.00;96685.44;4996420;28;20034;-79
2021/07/09 10:53:25;;;;;;;16.33;14.55;;;;;;;15.74;100.00;96684.59;5025068;28;20034;-78
2021/07/09 10:56:02;;;;;;;18.05;16.05;;;;;;;15.86;100.00;96695.59;5029591;28;20199;-78
2021/07/09 10:58:46;;;;;;;17.60;15.00;;;;;;;15.69;100.00;96686.97;5010057;28;20080;-79
2021/07/09 11:01:13;;;;;;;15.93;14.20;;;;;;;15.66;100.00;96689.94;5022795;28;20030;-79
2021/07/09 11:03:40;;;;;;;20.17;15.90;;;;;;;15.59;100.00;96696.97;5013849;28;20030;-79
2021/07/09 11:06:31;;;;;;;17.45;15.63;;;;;;;15.61;100.00;96693.13;5008332;28;20053;-80
2021/07/09 11:09:03;;;;;;;16.25;14.50;;;;;;;15.65;100.00;96690.94;4988259;28;20044;-79
2021/07/09 11:11:39;;;;;;;15.85;13.02;;;;;;;15.87;100.00;96699.91;5012836;28;20041;-79
2021/07/09 11:14:12;;;;;;;15.85;14.07;;;;;;;15.93;100.00;96693.88;5012516;28;20030;-79
2021/07/09 11:16:38;;;;;;;;;;;;;;;15.90;100.00;96696.91;5008175;28;20042;-79
2021/07/09 11:19:17;;;;;;;15.43;13.73;;;;;;;16.21;100.00;96697.53;5029157;28;19999;-78
2021/07/09 11:21:47;;;;;;;18.27;13.52;;;;;;;16.16;100.00;96686.66;5011726;28;20463;-79